sensor_id;sensor_type;location;lat;lon;timestamp;P1;durP1;ratioP1;P2;durP2;ratioP2
21036;SDS011;10677;50.942;4.028;2022-09-12T00:01:01;13.00;;;11.00;;
21036;SDS011;10677;50.942;4.028;2022-09-12T00:03:28;12.75;;;10.30;;
21036;SDS011;10677;50.942;4.028;2022-09-12T00:05:54;13.00;;;10.43;;
21036;SDS011;10677;50.942;4.028;2022-09-12T00:08:19;13.57;;;10.40;;
21036;SDS011;10677;50.942;4.028;2022-09-12T00:10:45;14.93;;;9.88;;
21036;SDS011;10677;50.942;4.028;2022-09-12T00:13:11;14.68;;;10.95;;
21036;SDS011;10677;50.942;4.028;2022-09-12T00:15:37;11.73;;;9.77;;
21036;SDS011;10677;50.942;4.028;2022-09-12T00:18:04;15.68;;;10.38;;
21036;SDS011;10677;50.942;4.028;2022-09-12T00:20:30;13.35;;;10.40;;
21036;SDS011;10677;50.942;4.028;2022-09-12T00:22:56;13.65;;;10.45;;
21036;SDS011;10677;50.942;4.028;2022-09-12T00:25:22;12.95;;;10.65;;
21036;SDS011;10677;50.942;4.028;2022-09-12T00:27:47;13.50;;;10.65;;
21036;SDS011;10677;50.942;4.028;2022-09-12T00:30:13;15.25;;;11.00;;
21036;SDS011;10677;50.942;4.028;2022-09-12T00:32:38;14.13;;;11.20;;
21036;SDS011;10677;50.942;4.028;2022-09-12T00:35:04;14.07;;;11.07;;
21036;SDS011;10677;50.942;4.028;2022-09-12T00:37:30;15.38;;;11.25;;
21036;SDS011;10677;50.942;4.028;2022-09-12T00:39:56;15.35;;;11.82;;
21036;SDS011;10677;50.942;4.028;2022-09-12T00:42:22;16.25;;;10.82;;
21036;SDS011;10677;50.942;4.028;2022-09-12T00:44:49;15.05;;;10.43;;
21036;SDS011;10677;50.942;4.028;2022-09-12T00:47:20;16.33;;;11.80;;
21036;SDS011;10677;50.942;4.028;2022-09-12T00:49:50;16.10;;;11.38;;
21036;SDS011;10677;50.942;4.028;2022-09-12T00:52:21;13.80;;;11.90;;
21036;SDS011;10677;50.942;4.028;2022-09-12T00:54:52;16.67;;;11.48;;
21036;SDS011;10677;50.942;4.028;2022-09-12T00:57:34;15.75;;;11.25;;
21036;SDS011;10677;50.942;4.028;2022-09-12T01:00:09;14.48;;;11.50;;
21036;SDS011;10677;50.942;4.028;2022-09-12T01:02:39;14.25;;;10.88;;
21036;SDS011;10677;50.942;4.028;2022-09-12T01:05:06;15.40;;;11.57;;
21036;SDS011;10677;50.942;4.028;2022-09-12T01:07:34;16.05;;;11.23;;
21036;SDS011;10677;50.942;4.028;2022-09-12T01:10:01;15.07;;;11.02;;
21036;SDS011;10677;50.942;4.028;2022-09-12T01:12:28;15.13;;;10.95;;
21036;SDS011;10677;50.942;4.028;2022-09-12T01:14:55;13.98;;;11.15;;
21036;SDS011;10677;50.942;4.028;2022-09-12T01:17:21;13.73;;;11.43;;
21036;SDS011;10677;50.942;4.028;2022-09-12T01:20:17;16.23;;;11.80;;
21036;SDS011;10677;50.942;4.028;2022-09-12T01:25:43;15.00;;;11.25;;
21036;SDS011;10677;50.942;4.028;2022-09-12T01:31:03;14.60;;;11.82;;
21036;SDS011;10677;50.942;4.028;2022-09-12T01:33:35;14.25;;;11.50;;
21036;SDS011;10677;50.942;4.028;2022-09-12T01:47:13;16.10;;;11.02;;
21036;SDS011;10677;50.942;4.028;2022-09-12T01:50:03;15.05;;;11.70;;
21036;SDS011;10677;50.942;4.028;2022-09-12T01:52:33;14.30;;;11.63;;
21036;SDS011;10677;50.942;4.028;2022-09-12T01:55:06;14.48;;;11.80;;
21036;SDS011;10677;50.942;4.028;2022-09-12T01:57:39;15.20;;;12.18;;
21036;SDS011;10677;50.942;4.028;2022-09-12T02:00:13;17.30;;;12.35;;
21036;SDS011;10677;50.942;4.028;2022-09-12T02:02:46;15.65;;;11.85;;
21036;SDS011;10677;50.942;4.028;2022-09-12T02:05:21;17.63;;;11.88;;
21036;SDS011;10677;50.942;4.028;2022-09-12T02:08:18;15.23;;;11.68;;
21036;SDS011;10677;50.942;4.028;2022-09-12T02:10:52;17.25;;;13.02;;
21036;SDS011;10677;50.942;4.028;2022-09-12T02:13:28;19.60;;;13.07;;
21036;SDS011;10677;50.942;4.028;2022-09-12T02:15:57;16.13;;;12.48;;
21036;SDS011;10677;50.942;4.028;2022-09-12T02:18:49;17.75;;;12.82;;
21036;SDS011;10677;50.942;4.028;2022-09-12T02:21:23;19.45;;;13.02;;
21036;SDS011;10677;50.942;4.028;2022-09-12T02:23:53;18.23;;;13.07;;
21036;SDS011;10677;50.942;4.028;2022-09-12T02:26:23;19.55;;;14.50;;
21036;SDS011;10677;50.942;4.028;2022-09-12T02:28:54;17.65;;;12.70;;
21036;SDS011;10677;50.942;4.028;2022-09-12T02:31:55;16.80;;;13.40;;
21036;SDS011;10677;50.942;4.028;2022-09-12T02:37:17;17.05;;;12.00;;
21036;SDS011;10677;50.942;4.028;2022-09-12T02:39:45;15.48;;;12.60;;
21036;SDS011;10677;50.942;4.028;2022-09-12T02:42:11;17.45;;;13.27;;
21036;SDS011;10677;50.942;4.028;2022-09-12T02:44:37;18.55;;;13.68;;
21036;SDS011;10677;50.942;4.028;2022-09-12T02:47:04;18.17;;;13.48;;
21036;SDS011;10677;50.942;4.028;2022-09-12T02:49:57;17.35;;;13.00;;
21036;SDS011;10677;50.942;4.028;2022-09-12T02:52:24;18.77;;;13.77;;
21036;SDS011;10677;50.942;4.028;2022-09-12T02:54:51;19.35;;;13.13;;
21036;SDS011;10677;50.942;4.028;2022-09-12T02:57:17;21.23;;;14.00;;
21036;SDS011;10677;50.942;4.028;2022-09-12T02:59:44;19.50;;;14.48;;
21036;SDS011;10677;50.942;4.028;2022-09-12T03:02:23;17.98;;;13.70;;
21036;SDS011;10677;50.942;4.028;2022-09-12T03:13:07;22.38;;;12.88;;
21036;SDS011;10677;50.942;4.028;2022-09-12T03:21:20;18.02;;;12.60;;
21036;SDS011;10677;50.942;4.028;2022-09-12T03:26:18;19.77;;;13.00;;
21036;SDS011;10677;50.942;4.028;2022-09-12T03:28:48;18.13;;;13.85;;
21036;SDS011;10677;50.942;4.028;2022-09-12T03:31:15;17.17;;;12.70;;
21036;SDS011;10677;50.942;4.028;2022-09-12T03:33:42;20.63;;;13.70;;
21036;SDS011;10677;50.942;4.028;2022-09-12T03:36:13;18.42;;;14.68;;
21036;SDS011;10677;50.942;4.028;2022-09-12T03:38:45;20.38;;;15.25;;
21036;SDS011;10677;50.942;4.028;2022-09-12T03:41:11;21.40;;;14.80;;
21036;SDS011;10677;50.942;4.028;2022-09-12T03:43:36;20.25;;;14.90;;
21036;SDS011;10677;50.942;4.028;2022-09-12T03:46:02;19.00;;;13.68;;
21036;SDS011;10677;50.942;4.028;2022-09-12T03:48:27;19.55;;;14.43;;
21036;SDS011;10677;50.942;4.028;2022-09-12T03:50:58;20.83;;;14.45;;
21036;SDS011;10677;50.942;4.028;2022-09-12T03:53:24;21.20;;;14.90;;
21036;SDS011;10677;50.942;4.028;2022-09-12T03:55:50;20.60;;;14.80;;
21036;SDS011;10677;50.942;4.028;2022-09-12T03:58:15;19.38;;;13.98;;
21036;SDS011;10677;50.942;4.028;2022-09-12T04:00:41;21.33;;;15.30;;
21036;SDS011;10677;50.942;4.028;2022-09-12T04:03:08;19.23;;;14.68;;
21036;SDS011;10677;50.942;4.028;2022-09-12T04:05:34;22.55;;;15.93;;
21036;SDS011;10677;50.942;4.028;2022-09-12T04:08:00;22.25;;;16.15;;
21036;SDS011;10677;50.942;4.028;2022-09-12T04:10:26;19.52;;;15.27;;
21036;SDS011;10677;50.942;4.028;2022-09-12T04:12:51;24.15;;;15.80;;
21036;SDS011;10677;50.942;4.028;2022-09-12T04:15:17;20.08;;;16.23;;
21036;SDS011;10677;50.942;4.028;2022-09-12T04:17:43;23.33;;;15.75;;
21036;SDS011;10677;50.942;4.028;2022-09-12T04:20:08;19.98;;;15.13;;
21036;SDS011;10677;50.942;4.028;2022-09-12T04:22:34;24.52;;;17.27;;
21036;SDS011;10677;50.942;4.028;2022-09-12T04:25:00;22.45;;;16.83;;
21036;SDS011;10677;50.942;4.028;2022-09-12T04:27:26;23.55;;;16.40;;
21036;SDS011;10677;50.942;4.028;2022-09-12T04:29:52;26.58;;;16.75;;
21036;SDS011;10677;50.942;4.028;2022-09-12T04:32:19;26.27;;;17.70;;
21036;SDS011;10677;50.942;4.028;2022-09-12T04:34:44;25.48;;;17.23;;
21036;SDS011;10677;50.942;4.028;2022-09-12T04:37:11;24.73;;;17.27;;
21036;SDS011;10677;50.942;4.028;2022-09-12T04:39:36;26.17;;;16.92;;
21036;SDS011;10677;50.942;4.028;2022-09-12T04:42:02;23.13;;;16.70;;
21036;SDS011;10677;50.942;4.028;2022-09-12T04:44:28;24.63;;;18.23;;
21036;SDS011;10677;50.942;4.028;2022-09-12T04:46:55;26.48;;;17.17;;
21036;SDS011;10677;50.942;4.028;2022-09-12T04:49:21;26.30;;;18.70;;
21036;SDS011;10677;50.942;4.028;2022-09-12T04:51:46;25.52;;;18.60;;
21036;SDS011;10677;50.942;4.028;2022-09-12T04:54:17;27.13;;;18.75;;
21036;SDS011;10677;50.942;4.028;2022-09-12T04:56:44;26.35;;;19.02;;
21036;SDS011;10677;50.942;4.028;2022-09-12T04:59:12;29.05;;;20.02;;
21036;SDS011;10677;50.942;4.028;2022-09-12T05:01:40;27.00;;;19.02;;
21036;SDS011;10677;50.942;4.028;2022-09-12T05:04:08;28.70;;;18.80;;
21036;SDS011;10677;50.942;4.028;2022-09-12T05:06:35;26.70;;;19.63;;
21036;SDS011;10677;50.942;4.028;2022-09-12T05:09:03;31.40;;;20.10;;
21036;SDS011;10677;50.942;4.028;2022-09-12T05:11:32;27.13;;;19.13;;
21036;SDS011;10677;50.942;4.028;2022-09-12T05:13:59;29.10;;;19.20;;
21036;SDS011;10677;50.942;4.028;2022-09-12T05:16:26;31.70;;;21.25;;
21036;SDS011;10677;50.942;4.028;2022-09-12T05:18:52;34.47;;;21.50;;
21036;SDS011;10677;50.942;4.028;2022-09-12T05:21:20;28.90;;;19.90;;
21036;SDS011;10677;50.942;4.028;2022-09-12T05:23:49;30.90;;;21.05;;
21036;SDS011;10677;50.942;4.028;2022-09-12T05:26:16;28.77;;;20.73;;
21036;SDS011;10677;50.942;4.028;2022-09-12T05:28:44;32.05;;;20.10;;
21036;SDS011;10677;50.942;4.028;2022-09-12T05:31:12;26.90;;;19.08;;
21036;SDS011;10677;50.942;4.028;2022-09-12T05:33:40;30.45;;;20.25;;
21036;SDS011;10677;50.942;4.028;2022-09-12T05:36:09;30.52;;;20.60;;
21036;SDS011;10677;50.942;4.028;2022-09-12T05:38:43;27.42;;;19.67;;
21036;SDS011;10677;50.942;4.028;2022-09-12T05:41:10;32.40;;;20.48;;
21036;SDS011;10677;50.942;4.028;2022-09-12T05:43:41;38.05;;;19.92;;
21036;SDS011;10677;50.942;4.028;2022-09-12T05:46:08;29.50;;;19.30;;
21036;SDS011;10677;50.942;4.028;2022-09-12T05:48:43;26.98;;;18.65;;
21036;SDS011;10677;50.942;4.028;2022-09-12T05:51:11;32.55;;;19.05;;
21036;SDS011;10677;50.942;4.028;2022-09-12T05:53:49;27.90;;;19.73;;
21036;SDS011;10677;50.942;4.028;2022-09-12T05:56:19;29.63;;;21.25;;
21036;SDS011;10677;50.942;4.028;2022-09-12T05:58:49;26.65;;;19.20;;
21036;SDS011;10677;50.942;4.028;2022-09-12T06:01:25;33.15;;;19.95;;
21036;SDS011;10677;50.942;4.028;2022-09-12T06:03:56;30.52;;;20.23;;
21036;SDS011;10677;50.942;4.028;2022-09-12T06:06:26;27.92;;;19.23;;
21036;SDS011;10677;50.942;4.028;2022-09-12T06:09:00;27.92;;;18.45;;
21036;SDS011;10677;50.942;4.028;2022-09-12T06:11:28;73.85;;;52.63;;
21036;SDS011;10677;50.942;4.028;2022-09-12T06:13:56;32.78;;;20.02;;
21036;SDS011;10677;50.942;4.028;2022-09-12T06:16:23;31.73;;;19.25;;
21036;SDS011;10677;50.942;4.028;2022-09-12T06:18:51;31.60;;;20.23;;
21036;SDS011;10677;50.942;4.028;2022-09-12T06:21:18;29.80;;;19.30;;
21036;SDS011;10677;50.942;4.028;2022-09-12T06:23:45;27.50;;;18.38;;
21036;SDS011;10677;50.942;4.028;2022-09-12T06:26:12;27.40;;;18.08;;
21036;SDS011;10677;50.942;4.028;2022-09-12T06:28:40;26.23;;;16.83;;
21036;SDS011;10677;50.942;4.028;2022-09-12T06:31:07;26.02;;;17.50;;
21036;SDS011;10677;50.942;4.028;2022-09-12T06:33:35;26.27;;;16.52;;
21036;SDS011;10677;50.942;4.028;2022-09-12T06:36:03;27.35;;;16.38;;
21036;SDS011;10677;50.942;4.028;2022-09-12T06:38:31;22.23;;;16.80;;
21036;SDS011;10677;50.942;4.028;2022-09-12T06:40:57;24.63;;;16.63;;
21036;SDS011;10677;50.942;4.028;2022-09-12T06:43:23;24.30;;;16.58;;
21036;SDS011;10677;50.942;4.028;2022-09-12T06:45:51;22.35;;;16.02;;
21036;SDS011;10677;50.942;4.028;2022-09-12T06:48:16;25.63;;;16.20;;
21036;SDS011;10677;50.942;4.028;2022-09-12T06:50:42;22.38;;;16.70;;
21036;SDS011;10677;50.942;4.028;2022-09-12T06:53:08;23.33;;;15.02;;
21036;SDS011;10677;50.942;4.028;2022-09-12T06:55:33;23.52;;;15.10;;
21036;SDS011;10677;50.942;4.028;2022-09-12T06:57:59;22.63;;;14.70;;
21036;SDS011;10677;50.942;4.028;2022-09-12T07:00:26;23.13;;;16.05;;
21036;SDS011;10677;50.942;4.028;2022-09-12T07:02:54;24.88;;;14.10;;
21036;SDS011;10677;50.942;4.028;2022-09-12T07:05:23;26.05;;;14.75;;
21036;SDS011;10677;50.942;4.028;2022-09-12T07:07:48;24.52;;;15.57;;
21036;SDS011;10677;50.942;4.028;2022-09-12T07:10:14;22.25;;;13.57;;
21036;SDS011;10677;50.942;4.028;2022-09-12T07:12:39;21.38;;;13.93;;
21036;SDS011;10677;50.942;4.028;2022-09-12T07:15:05;20.55;;;13.60;;
21036;SDS011;10677;50.942;4.028;2022-09-12T07:17:31;20.92;;;13.95;;
21036;SDS011;10677;50.942;4.028;2022-09-12T07:19:57;23.98;;;14.30;;
21036;SDS011;10677;50.942;4.028;2022-09-12T07:22:22;19.48;;;13.55;;
21036;SDS011;10677;50.942;4.028;2022-09-12T07:24:48;21.15;;;12.00;;
21036;SDS011;10677;50.942;4.028;2022-09-12T07:27:14;20.98;;;12.32;;
21036;SDS011;10677;50.942;4.028;2022-09-12T07:29:40;15.25;;;10.85;;
21036;SDS011;10677;50.942;4.028;2022-09-12T07:32:06;15.35;;;10.60;;
21036;SDS011;10677;50.942;4.028;2022-09-12T07:34:32;19.75;;;11.20;;
21036;SDS011;10677;50.942;4.028;2022-09-12T07:36:58;18.85;;;11.55;;
21036;SDS011;10677;50.942;4.028;2022-09-12T07:39:24;16.25;;;11.10;;
21036;SDS011;10677;50.942;4.028;2022-09-12T07:41:50;22.42;;;11.90;;
21036;SDS011;10677;50.942;4.028;2022-09-12T07:44:15;20.60;;;11.50;;
21036;SDS011;10677;50.942;4.028;2022-09-12T07:46:41;17.50;;;12.80;;
21036;SDS011;10677;50.942;4.028;2022-09-12T07:49:07;20.10;;;12.35;;
21036;SDS011;10677;50.942;4.028;2022-09-12T07:51:33;17.63;;;11.88;;
21036;SDS011;10677;50.942;4.028;2022-09-12T07:53:58;18.90;;;11.75;;
21036;SDS011;10677;50.942;4.028;2022-09-12T07:56:25;17.95;;;11.52;;
21036;SDS011;10677;50.942;4.028;2022-09-12T07:58:53;15.48;;;10.77;;
21036;SDS011;10677;50.942;4.028;2022-09-12T08:01:21;18.23;;;11.15;;
21036;SDS011;10677;50.942;4.028;2022-09-12T08:03:52;16.90;;;11.60;;
21036;SDS011;10677;50.942;4.028;2022-09-12T08:06:21;16.00;;;11.90;;
21036;SDS011;10677;50.942;4.028;2022-09-12T08:08:51;16.80;;;11.05;;
21036;SDS011;10677;50.942;4.028;2022-09-12T08:11:18;15.73;;;10.85;;
21036;SDS011;10677;50.942;4.028;2022-09-12T08:13:46;16.85;;;10.18;;
21036;SDS011;10677;50.942;4.028;2022-09-12T08:16:16;17.38;;;10.40;;
21036;SDS011;10677;50.942;4.028;2022-09-12T08:18:45;16.65;;;10.50;;
21036;SDS011;10677;50.942;4.028;2022-09-12T08:21:13;15.02;;;10.65;;
21036;SDS011;10677;50.942;4.028;2022-09-12T08:23:43;17.05;;;9.98;;
21036;SDS011;10677;50.942;4.028;2022-09-12T08:26:09;16.23;;;10.02;;
21036;SDS011;10677;50.942;4.028;2022-09-12T08:28:36;13.07;;;9.55;;
21036;SDS011;10677;50.942;4.028;2022-09-12T08:31:09;20.85;;;9.52;;
21036;SDS011;10677;50.942;4.028;2022-09-12T08:33:36;13.27;;;9.23;;
21036;SDS011;10677;50.942;4.028;2022-09-12T08:36:06;11.00;;;8.88;;
21036;SDS011;10677;50.942;4.028;2022-09-12T08:38:42;12.00;;;8.68;;
21036;SDS011;10677;50.942;4.028;2022-09-12T08:41:27;12.90;;;8.65;;
21036;SDS011;10677;50.942;4.028;2022-09-12T08:49:47;10.65;;;7.15;;
21036;SDS011;10677;50.942;4.028;2022-09-12T08:55:22;13.65;;;7.78;;
21036;SDS011;10677;50.942;4.028;2022-09-12T08:57:48;11.93;;;7.65;;
21036;SDS011;10677;50.942;4.028;2022-09-12T09:00:16;11.55;;;7.90;;
21036;SDS011;10677;50.942;4.028;2022-09-12T09:08:42;12.35;;;7.80;;
21036;SDS011;10677;50.942;4.028;2022-09-12T09:16:48;8.98;;;6.45;;
21036;SDS011;10677;50.942;4.028;2022-09-12T09:19:24;7.82;;;5.72;;
21036;SDS011;10677;50.942;4.028;2022-09-12T09:22:40;11.02;;;7.03;;
21036;SDS011;10677;50.942;4.028;2022-09-12T09:25:12;11.85;;;5.70;;
21036;SDS011;10677;50.942;4.028;2022-09-12T09:28:01;7.55;;;4.70;;
21036;SDS011;10677;50.942;4.028;2022-09-12T09:30:30;9.65;;;5.00;;
21036;SDS011;10677;50.942;4.028;2022-09-12T09:33:00;9.02;;;5.10;;
21036;SDS011;10677;50.942;4.028;2022-09-12T09:35:31;8.05;;;4.60;;
21036;SDS011;10677;50.942;4.028;2022-09-12T09:38:17;7.20;;;5.50;;
21036;SDS011;10677;50.942;4.028;2022-09-12T09:41:09;7.97;;;5.05;;
21036;SDS011;10677;50.942;4.028;2022-09-12T09:43:57;9.57;;;4.30;;
21036;SDS011;10677;50.942;4.028;2022-09-12T09:46:23;7.03;;;3.63;;
21036;SDS011;10677;50.942;4.028;2022-09-12T09:48:50;6.25;;;3.85;;
21036;SDS011;10677;50.942;4.028;2022-09-12T09:51:27;6.78;;;3.53;;
21036;SDS011;10677;50.942;4.028;2022-09-12T09:56:47;7.00;;;3.55;;
21036;SDS011;10677;50.942;4.028;2022-09-12T09:59:29;12.05;;;7.97;;
21036;SDS011;10677;50.942;4.028;2022-09-12T10:02:07;7.68;;;3.60;;
21036;SDS011;10677;50.942;4.028;2022-09-12T10:04:54;7.20;;;4.57;;
21036;SDS011;10677;50.942;4.028;2022-09-12T10:07:21;7.85;;;3.47;;
21036;SDS011;10677;50.942;4.028;2022-09-12T10:10:05;6.63;;;2.85;;
21036;SDS011;10677;50.942;4.028;2022-09-12T10:12:34;5.18;;;3.40;;
21036;SDS011;10677;50.942;4.028;2022-09-12T10:15:01;6.07;;;3.35;;
21036;SDS011;10677;50.942;4.028;2022-09-12T10:17:43;5.03;;;3.00;;
21036;SDS011;10677;50.942;4.028;2022-09-12T10:22:58;6.28;;;3.30;;
21036;SDS011;10677;50.942;4.028;2022-09-12T10:25:25;6.63;;;3.08;;
21036;SDS011;10677;50.942;4.028;2022-09-12T10:27:52;5.75;;;3.05;;
21036;SDS011;10677;50.942;4.028;2022-09-12T10:30:20;4.53;;;2.42;;
21036;SDS011;10677;50.942;4.028;2022-09-12T10:32:49;7.75;;;4.00;;
21036;SDS011;10677;50.942;4.028;2022-09-12T10:35:19;5.90;;;2.70;;
21036;SDS011;10677;50.942;4.028;2022-09-12T10:40:22;4.75;;;2.75;;
21036;SDS011;10677;50.942;4.028;2022-09-12T10:42:50;9.77;;;6.43;;
21036;SDS011;10677;50.942;4.028;2022-09-12T10:45:20;6.55;;;2.40;;
21036;SDS011;10677;50.942;4.028;2022-09-12T10:47:52;6.22;;;2.42;;
21036;SDS011;10677;50.942;4.028;2022-09-12T10:50:24;5.18;;;3.10;;
21036;SDS011;10677;50.942;4.028;2022-09-12T10:52:51;4.65;;;2.67;;
21036;SDS011;10677;50.942;4.028;2022-09-12T10:55:19;5.88;;;2.42;;
21036;SDS011;10677;50.942;4.028;2022-09-12T11:00:27;6.20;;;2.40;;
21036;SDS011;10677;50.942;4.028;2022-09-12T11:03:05;4.90;;;2.60;;
21036;SDS011;10677;50.942;4.028;2022-09-12T11:13:52;5.57;;;2.50;;
21036;SDS011;10677;50.942;4.028;2022-09-12T11:22:20;3.67;;;1.77;;
21036;SDS011;10677;50.942;4.028;2022-09-12T11:24:57;5.65;;;2.10;;
21036;SDS011;10677;50.942;4.028;2022-09-12T11:30:20;4.65;;;2.20;;
21036;SDS011;10677;50.942;4.028;2022-09-12T11:35:22;6.72;;;1.98;;
21036;SDS011;10677;50.942;4.028;2022-09-12T11:42:50;3.40;;;1.80;;
21036;SDS011;10677;50.942;4.028;2022-09-12T11:45:24;3.13;;;1.83;;
21036;SDS011;10677;50.942;4.028;2022-09-12T11:48:06;4.85;;;2.28;;
21036;SDS011;10677;50.942;4.028;2022-09-12T11:50:43;4.30;;;2.33;;
21036;SDS011;10677;50.942;4.028;2022-09-12T11:53:21;4.60;;;2.05;;
21036;SDS011;10677;50.942;4.028;2022-09-12T11:55:54;3.28;;;2.10;;
21036;SDS011;10677;50.942;4.028;2022-09-12T11:58:26;5.20;;;1.90;;
21036;SDS011;10677;50.942;4.028;2022-09-12T12:00:56;4.25;;;2.00;;
21036;SDS011;10677;50.942;4.028;2022-09-12T12:03:35;3.65;;;2.22;;
21036;SDS011;10677;50.942;4.028;2022-09-12T12:08:55;3.50;;;1.67;;
21036;SDS011;10677;50.942;4.028;2022-09-12T12:13:58;3.88;;;1.90;;
21036;SDS011;10677;50.942;4.028;2022-09-12T12:16:28;3.42;;;1.70;;
21036;SDS011;10677;50.942;4.028;2022-09-12T12:18:57;6.72;;;1.80;;
21036;SDS011;10677;50.942;4.028;2022-09-12T12:21:39;3.78;;;1.90;;
21036;SDS011;10677;50.942;4.028;2022-09-12T12:29:04;4.53;;;1.70;;
21036;SDS011;10677;50.942;4.028;2022-09-12T12:36:56;4.95;;;1.75;;
21036;SDS011;10677;50.942;4.028;2022-09-12T12:41:56;4.82;;;1.75;;
21036;SDS011;10677;50.942;4.028;2022-09-12T12:47:38;2.85;;;1.40;;
21036;SDS011;10677;50.942;4.028;2022-09-12T12:50:12;4.97;;;2.00;;
21036;SDS011;10677;50.942;4.028;2022-09-12T12:52:52;4.18;;;1.73;;
21036;SDS011;10677;50.942;4.028;2022-09-12T12:55:25;3.85;;;1.45;;
21036;SDS011;10677;50.942;4.028;2022-09-12T12:57:53;4.18;;;1.60;;
21036;SDS011;10677;50.942;4.028;2022-09-12T13:02:49;2.65;;;1.50;;
21036;SDS011;10677;50.942;4.028;2022-09-12T13:05:22;4.07;;;1.45;;
21036;SDS011;10677;50.942;4.028;2022-09-12T13:07:53;5.13;;;1.48;;
21036;SDS011;10677;50.942;4.028;2022-09-12T13:10:27;3.05;;;1.50;;
21036;SDS011;10677;50.942;4.028;2022-09-12T13:12:55;4.50;;;1.40;;
21036;SDS011;10677;50.942;4.028;2022-09-12T13:18:03;7.80;;;1.60;;
21036;SDS011;10677;50.942;4.028;2022-09-12T13:21:01;4.35;;;1.55;;
21036;SDS011;10677;50.942;4.028;2022-09-12T13:23:38;4.80;;;1.52;;
21036;SDS011;10677;50.942;4.028;2022-09-12T13:26:12;3.55;;;1.40;;
21036;SDS011;10677;50.942;4.028;2022-09-12T13:28:45;2.20;;;1.35;;
21036;SDS011;10677;50.942;4.028;2022-09-12T13:33:47;2.60;;;1.33;;
21036;SDS011;10677;50.942;4.028;2022-09-12T13:44:54;2.85;;;1.60;;
21036;SDS011;10677;50.942;4.028;2022-09-12T13:47:35;4.30;;;1.70;;
21036;SDS011;10677;50.942;4.028;2022-09-12T13:50:06;3.13;;;1.35;;
21036;SDS011;10677;50.942;4.028;2022-09-12T13:52:34;2.97;;;1.38;;
21036;SDS011;10677;50.942;4.028;2022-09-12T13:55:04;2.80;;;1.40;;
21036;SDS011;10677;50.942;4.028;2022-09-12T13:59:58;3.13;;;1.63;;
21036;SDS011;10677;50.942;4.028;2022-09-12T14:02:27;1.70;;;1.13;;
21036;SDS011;10677;50.942;4.028;2022-09-12T14:04:53;2.92;;;1.60;;
21036;SDS011;10677;50.942;4.028;2022-09-12T14:07:36;2.92;;;1.45;;
21036;SDS011;10677;50.942;4.028;2022-09-12T14:10:12;6.38;;;1.58;;
21036;SDS011;10677;50.942;4.028;2022-09-12T14:12:42;3.55;;;1.40;;
21036;SDS011;10677;50.942;4.028;2022-09-12T14:15:15;2.67;;;1.50;;
21036;SDS011;10677;50.942;4.028;2022-09-12T14:17:55;3.28;;;1.20;;
21036;SDS011;10677;50.942;4.028;2022-09-12T14:20:25;3.15;;;1.10;;
21036;SDS011;10677;50.942;4.028;2022-09-12T14:25:51;3.47;;;0.90;;
21036;SDS011;10677;50.942;4.028;2022-09-12T14:28:20;2.35;;;1.15;;
21036;SDS011;10677;50.942;4.028;2022-09-12T14:31:00;4.05;;;1.35;;
21036;SDS011;10677;50.942;4.028;2022-09-12T14:33:32;1.90;;;0.80;;
21036;SDS011;10677;50.942;4.028;2022-09-12T14:36:11;2.95;;;0.95;;
21036;SDS011;10677;50.942;4.028;2022-09-12T14:41:46;1.67;;;0.80;;
21036;SDS011;10677;50.942;4.028;2022-09-12T14:44:15;1.67;;;0.90;;
21036;SDS011;10677;50.942;4.028;2022-09-12T14:46:47;1.25;;;0.88;;
21036;SDS011;10677;50.942;4.028;2022-09-12T14:49:15;2.17;;;0.77;;
21036;SDS011;10677;50.942;4.028;2022-09-12T14:57:05;4.38;;;1.08;;
21036;SDS011;10677;50.942;4.028;2022-09-12T14:59:41;4.40;;;1.00;;
21036;SDS011;10677;50.942;4.028;2022-09-12T15:04:47;2.85;;;1.27;;
21036;SDS011;10677;50.942;4.028;2022-09-12T15:07:19;1.65;;;0.90;;
21036;SDS011;10677;50.942;4.028;2022-09-12T15:09:54;4.20;;;1.00;;
21036;SDS011;10677;50.942;4.028;2022-09-12T15:12:21;2.13;;;0.75;;
21036;SDS011;10677;50.942;4.028;2022-09-12T15:14:47;2.22;;;1.00;;
21036;SDS011;10677;50.942;4.028;2022-09-12T15:17:13;2.40;;;1.00;;
21036;SDS011;10677;50.942;4.028;2022-09-12T15:19:38;1.67;;;1.00;;
21036;SDS011;10677;50.942;4.028;2022-09-12T15:22:04;5.20;;;3.13;;
21036;SDS011;10677;50.942;4.028;2022-09-12T15:24:29;1.90;;;0.70;;
21036;SDS011;10677;50.942;4.028;2022-09-12T15:26:55;1.95;;;0.80;;
21036;SDS011;10677;50.942;4.028;2022-09-12T15:29:21;2.50;;;1.00;;
21036;SDS011;10677;50.942;4.028;2022-09-12T15:31:46;3.42;;;1.20;;
21036;SDS011;10677;50.942;4.028;2022-09-12T15:34:15;3.17;;;0.93;;
21036;SDS011;10677;50.942;4.028;2022-09-12T15:36:40;4.13;;;1.27;;
21036;SDS011;10677;50.942;4.028;2022-09-12T15:39:07;4.25;;;1.27;;
21036;SDS011;10677;50.942;4.028;2022-09-12T15:41:35;5.47;;;0.80;;
21036;SDS011;10677;50.942;4.028;2022-09-12T15:44:02;4.25;;;0.93;;
21036;SDS011;10677;50.942;4.028;2022-09-12T15:46:29;1.52;;;0.80;;
21036;SDS011;10677;50.942;4.028;2022-09-12T15:48:54;1.45;;;0.60;;
21036;SDS011;10677;50.942;4.028;2022-09-12T15:51:20;2.28;;;0.70;;
21036;SDS011;10677;50.942;4.028;2022-09-12T15:53:47;2.10;;;0.80;;
21036;SDS011;10677;50.942;4.028;2022-09-12T15:56:14;4.00;;;0.90;;
21036;SDS011;10677;50.942;4.028;2022-09-12T15:58:41;2.28;;;1.00;;
21036;SDS011;10677;50.942;4.028;2022-09-12T16:01:10;1.60;;;0.80;;
21036;SDS011;10677;50.942;4.028;2022-09-12T16:03:41;3.42;;;0.80;;
21036;SDS011;10677;50.942;4.028;2022-09-12T16:06:06;3.83;;;1.15;;
21036;SDS011;10677;50.942;4.028;2022-09-12T16:08:33;2.22;;;0.80;;
21036;SDS011;10677;50.942;4.028;2022-09-12T16:11:06;1.25;;;0.80;;
21036;SDS011;10677;50.942;4.028;2022-09-12T16:13:36;2.72;;;1.20;;
21036;SDS011;10677;50.942;4.028;2022-09-12T16:16:01;3.03;;;0.90;;
21036;SDS011;10677;50.942;4.028;2022-09-12T16:18:27;2.28;;;0.85;;
21036;SDS011;10677;50.942;4.028;2022-09-12T16:20:54;2.50;;;1.10;;
21036;SDS011;10677;50.942;4.028;2022-09-12T16:23:20;4.00;;;1.40;;
21036;SDS011;10677;50.942;4.028;2022-09-12T16:25:56;4.00;;;1.50;;
21036;SDS011;10677;50.942;4.028;2022-09-12T16:28:22;3.15;;;0.93;;
21036;SDS011;10677;50.942;4.028;2022-09-12T16:30:54;2.67;;;1.00;;
21036;SDS011;10677;50.942;4.028;2022-09-12T16:33:31;1.92;;;0.80;;
21036;SDS011;10677;50.942;4.028;2022-09-12T16:36:03;3.90;;;1.10;;
21036;SDS011;10677;50.942;4.028;2022-09-12T16:38:33;2.90;;;0.90;;
21036;SDS011;10677;50.942;4.028;2022-09-12T16:41:07;1.48;;;0.80;;
21036;SDS011;10677;50.942;4.028;2022-09-12T16:43:34;1.48;;;0.60;;
21036;SDS011;10677;50.942;4.028;2022-09-12T16:46:07;1.77;;;0.80;;
21036;SDS011;10677;50.942;4.028;2022-09-12T16:48:34;1.67;;;0.60;;
21036;SDS011;10677;50.942;4.028;2022-09-12T16:51:03;4.55;;;0.98;;
21036;SDS011;10677;50.942;4.028;2022-09-12T16:53:34;1.63;;;0.77;;
21036;SDS011;10677;50.942;4.028;2022-09-12T16:56:01;1.85;;;0.82;;
21036;SDS011;10677;50.942;4.028;2022-09-12T16:58:30;2.17;;;0.90;;
21036;SDS011;10677;50.942;4.028;2022-09-12T17:00:58;1.35;;;0.70;;
21036;SDS011;10677;50.942;4.028;2022-09-12T17:03:34;5.03;;;1.10;;
21036;SDS011;10677;50.942;4.028;2022-09-12T17:08:32;3.60;;;0.93;;
21036;SDS011;10677;50.942;4.028;2022-09-12T17:11:02;3.10;;;0.80;;
21036;SDS011;10677;50.942;4.028;2022-09-12T17:13:33;3.63;;;0.88;;
21036;SDS011;10677;50.942;4.028;2022-09-12T17:15:59;2.45;;;0.80;;
21036;SDS011;10677;50.942;4.028;2022-09-12T17:18:28;2.55;;;1.00;;